sensor_id;sensor_type;location;lat;lon;timestamp;temperature;humidity
25914;DHT22;13718;50.922;5.346;2023-06-14T00:01:44;21.30;63.20
25914;DHT22;13718;50.922;5.346;2023-06-14T00:04:11;21.40;63.50
25914;DHT22;13718;50.922;5.346;2023-06-14T00:06:37;21.30;63.30
25914;DHT22;13718;50.922;5.346;2023-06-14T00:09:03;21.10;63.80
25914;DHT22;13718;50.922;5.346;2023-06-14T00:11:31;21.00;64.30
25914;DHT22;13718;50.922;5.346;2023-06-14T00:13:57;21.10;64.50
25914;DHT22;13718;50.922;5.346;2023-06-14T00:16:22;21.20;63.80
25914;DHT22;13718;50.922;5.346;2023-06-14T00:18:48;21.20;63.80
25914;DHT22;13718;50.922;5.346;2023-06-14T00:21:14;21.10;64.40
25914;DHT22;13718;50.922;5.346;2023-06-14T00:23:40;21.10;64.30
25914;DHT22;13718;50.922;5.346;2023-06-14T00:26:05;21.00;64.80
25914;DHT22;13718;50.922;5.346;2023-06-14T00:28:31;20.90;65.00
25914;DHT22;13718;50.922;5.346;2023-06-14T00:30:57;20.90;64.90
25914;DHT22;13718;50.922;5.346;2023-06-14T00:33:22;20.70;65.10
25914;DHT22;13718;50.922;5.346;2023-06-14T00:35:48;20.70;65.50
25914;DHT22;13718;50.922;5.346;2023-06-14T00:38:13;20.70;65.30
25914;DHT22;13718;50.922;5.346;2023-06-14T00:40:39;20.70;65.20
25914;DHT22;13718;50.922;5.346;2023-06-14T00:43:05;20.70;65.40
25914;DHT22;13718;50.922;5.346;2023-06-14T00:45:31;21.00;64.60
25914;DHT22;13718;50.922;5.346;2023-06-14T00:48:02;21.00;64.60
25914;DHT22;13718;50.922;5.346;2023-06-14T00:50:28;20.90;64.80
25914;DHT22;13718;50.922;5.346;2023-06-14T00:52:55;20.80;65.20
25914;DHT22;13718;50.922;5.346;2023-06-14T00:55:21;20.80;65.50
25914;DHT22;13718;50.922;5.346;2023-06-14T00:57:46;20.70;65.60
25914;DHT22;13718;50.922;5.346;2023-06-14T01:00:13;20.80;65.50
25914;DHT22;13718;50.922;5.346;2023-06-14T01:02:40;20.60;66.00
25914;DHT22;13718;50.922;5.346;2023-06-14T01:05:06;20.60;66.20
25914;DHT22;13718;50.922;5.346;2023-06-14T01:07:45;20.50;66.60
25914;DHT22;13718;50.922;5.346;2023-06-14T01:12:41;20.60;66.50
25914;DHT22;13718;50.922;5.346;2023-06-14T01:15:12;20.50;66.60
25914;DHT22;13718;50.922;5.346;2023-06-14T01:17:39;20.40;66.70
25914;DHT22;13718;50.922;5.346;2023-06-14T01:20:12;20.50;66.90
25914;DHT22;13718;50.922;5.346;2023-06-14T01:22:53;20.40;66.70
25914;DHT22;13718;50.922;5.346;2023-06-14T01:25:19;20.40;67.20
25914;DHT22;13718;50.922;5.346;2023-06-14T01:28:21;20.30;67.10
25914;DHT22;13718;50.922;5.346;2023-06-14T01:30:41;20.40;66.70
25914;DHT22;13718;50.922;5.346;2023-06-14T01:33:13;20.50;66.40
25914;DHT22;13718;50.922;5.346;2023-06-14T01:35:41;20.50;66.20
25914;DHT22;13718;50.922;5.346;2023-06-14T01:38:07;20.70;65.70
25914;DHT22;13718;50.922;5.346;2023-06-14T01:40:34;20.60;66.00
25914;DHT22;13718;50.922;5.346;2023-06-14T01:43:01;20.20;66.80
25914;DHT22;13718;50.922;5.346;2023-06-14T01:45:27;20.00;67.80
25914;DHT22;13718;50.922;5.346;2023-06-14T01:47:54;19.90;68.40
25914;DHT22;13718;50.922;5.346;2023-06-14T01:50:20;19.90;68.80
25914;DHT22;13718;50.922;5.346;2023-06-14T01:52:46;19.80;68.90
25914;DHT22;13718;50.922;5.346;2023-06-14T01:55:12;19.70;69.30
25914;DHT22;13718;50.922;5.346;2023-06-14T01:57:37;19.60;70.00
25914;DHT22;13718;50.922;5.346;2023-06-14T02:00:04;19.60;70.40
25914;DHT22;13718;50.922;5.346;2023-06-14T02:02:33;19.50;70.50
25914;DHT22;13718;50.922;5.346;2023-06-14T02:04:59;19.50;70.50
25914;DHT22;13718;50.922;5.346;2023-06-14T02:07:24;19.40;71.10
25914;DHT22;13718;50.922;5.346;2023-06-14T02:09:50;19.30;71.20
25914;DHT22;13718;50.922;5.346;2023-06-14T02:12:15;19.50;70.80
25914;DHT22;13718;50.922;5.346;2023-06-14T02:14:41;19.50;70.70
25914;DHT22;13718;50.922;5.346;2023-06-14T02:17:07;19.60;70.30
25914;DHT22;13718;50.922;5.346;2023-06-14T02:19:33;19.60;70.20
25914;DHT22;13718;50.922;5.346;2023-06-14T02:21:59;19.50;70.40
25914;DHT22;13718;50.922;5.346;2023-06-14T02:24:24;19.40;71.00
25914;DHT22;13718;50.922;5.346;2023-06-14T02:26:50;19.20;71.90
25914;DHT22;13718;50.922;5.346;2023-06-14T02:29:16;19.10;72.30
25914;DHT22;13718;50.922;5.346;2023-06-14T02:31:41;19.00;72.50
25914;DHT22;13718;50.922;5.346;2023-06-14T02:34:07;19.10;72.40
25914;DHT22;13718;50.922;5.346;2023-06-14T02:36:36;19.30;72.60
25914;DHT22;13718;50.922;5.346;2023-06-14T02:39:08;19.40;71.10
25914;DHT22;13718;50.922;5.346;2023-06-14T02:41:35;19.20;71.80
25914;DHT22;13718;50.922;5.346;2023-06-14T02:44:00;19.20;72.10
25914;DHT22;13718;50.922;5.346;2023-06-14T02:46:26;19.20;72.00
25914;DHT22;13718;50.922;5.346;2023-06-14T02:48:51;19.10;72.10
25914;DHT22;13718;50.922;5.346;2023-06-14T02:51:17;19.10;72.50
25914;DHT22;13718;50.922;5.346;2023-06-14T02:53:42;19.00;72.90
25914;DHT22;13718;50.922;5.346;2023-06-14T02:56:09;18.90;73.30
25914;DHT22;13718;50.922;5.346;2023-06-14T02:58:36;18.90;73.20
25914;DHT22;13718;50.922;5.346;2023-06-14T03:01:02;19.00;73.60
25914;DHT22;13718;50.922;5.346;2023-06-14T03:03:29;19.10;73.30
25914;DHT22;13718;50.922;5.346;2023-06-14T03:05:55;18.90;73.30
25914;DHT22;13718;50.922;5.346;2023-06-14T03:08:21;18.80;74.00
25914;DHT22;13718;50.922;5.346;2023-06-14T03:10:53;18.80;74.60
25914;DHT22;13718;50.922;5.346;2023-06-14T03:13:19;18.70;74.50
25914;DHT22;13718;50.922;5.346;2023-06-14T03:15:48;18.70;74.90
25914;DHT22;13718;50.922;5.346;2023-06-14T03:18:16;18.70;75.70
25914;DHT22;13718;50.922;5.346;2023-06-14T03:20:42;18.70;74.70
25914;DHT22;13718;50.922;5.346;2023-06-14T03:23:08;18.70;74.40
25914;DHT22;13718;50.922;5.346;2023-06-14T03:25:34;18.80;74.40
25914;DHT22;13718;50.922;5.346;2023-06-14T03:28:04;18.60;74.70
25914;DHT22;13718;50.922;5.346;2023-06-14T03:30:30;18.50;75.60
25914;DHT22;13718;50.922;5.346;2023-06-14T03:32:57;18.40;75.70
25914;DHT22;13718;50.922;5.346;2023-06-14T03:35:23;18.20;76.00
25914;DHT22;13718;50.922;5.346;2023-06-14T03:37:49;18.10;76.50
25914;DHT22;13718;50.922;5.346;2023-06-14T03:40:17;18.20;76.70
25914;DHT22;13718;50.922;5.346;2023-06-14T03:42:43;18.50;75.60
25914;DHT22;13718;50.922;5.346;2023-06-14T03:45:09;18.40;75.30
25914;DHT22;13718;50.922;5.346;2023-06-14T03:47:35;18.40;75.80
25914;DHT22;13718;50.922;5.346;2023-06-14T03:50:02;18.30;76.20
25914;DHT22;13718;50.922;5.346;2023-06-14T03:52:28;18.30;76.40
25914;DHT22;13718;50.922;5.346;2023-06-14T03:54:53;18.30;76.50
25914;DHT22;13718;50.922;5.346;2023-06-14T03:57:19;18.40;76.50
25914;DHT22;13718;50.922;5.346;2023-06-14T03:59:45;18.30;76.70
25914;DHT22;13718;50.922;5.346;2023-06-14T04:02:12;18.30;76.60
25914;DHT22;13718;50.922;5.346;2023-06-14T04:04:40;18.20;77.10
25914;DHT22;13718;50.922;5.346;2023-06-14T04:07:10;18.20;77.60
25914;DHT22;13718;50.922;5.346;2023-06-14T04:09:37;18.10;77.70
25914;DHT22;13718;50.922;5.346;2023-06-14T04:12:04;18.10;78.00
25914;DHT22;13718;50.922;5.346;2023-06-14T04:14:29;18.20;77.40
25914;DHT22;13718;50.922;5.346;2023-06-14T04:16:56;18.30;77.30
25914;DHT22;13718;50.922;5.346;2023-06-14T04:19:22;18.40;76.60
25914;DHT22;13718;50.922;5.346;2023-06-14T04:21:47;18.50;76.30
25914;DHT22;13718;50.922;5.346;2023-06-14T04:24:13;18.70;76.70
25914;DHT22;13718;50.922;5.346;2023-06-14T04:26:45;18.70;75.60
25914;DHT22;13718;50.922;5.346;2023-06-14T04:29:13;18.80;75.70
25914;DHT22;13718;50.922;5.346;2023-06-14T04:31:42;19.00;74.70
25914;DHT22;13718;50.922;5.346;2023-06-14T04:34:09;19.20;73.80
25914;DHT22;13718;50.922;5.346;2023-06-14T04:36:42;19.30;73.60
25914;DHT22;13718;50.922;5.346;2023-06-14T04:39:18;19.20;73.80
25914;DHT22;13718;50.922;5.346;2023-06-14T04:41:44;19.20;73.50
25914;DHT22;13718;50.922;5.346;2023-06-14T04:44:10;19.40;73.20
25914;DHT22;13718;50.922;5.346;2023-06-14T04:46:36;19.20;73.70
25914;DHT22;13718;50.922;5.346;2023-06-14T04:49:17;19.20;74.10
25914;DHT22;13718;50.922;5.346;2023-06-14T04:51:44;19.40;73.50
25914;DHT22;13718;50.922;5.346;2023-06-14T04:54:11;19.40;74.30
25914;DHT22;13718;50.922;5.346;2023-06-14T04:56:43;19.30;73.80
25914;DHT22;13718;50.922;5.346;2023-06-14T04:59:10;19.30;73.90
25914;DHT22;13718;50.922;5.346;2023-06-14T05:01:40;19.30;74.00
25914;DHT22;13718;50.922;5.346;2023-06-14T05:04:05;19.40;74.20
25914;DHT22;13718;50.922;5.346;2023-06-14T05:06:31;19.70;73.20
25914;DHT22;13718;50.922;5.346;2023-06-14T05:08:57;19.70;73.10
25914;DHT22;13718;50.922;5.346;2023-06-14T05:11:22;19.80;72.50
25914;DHT22;13718;50.922;5.346;2023-06-14T05:13:49;20.00;71.90
25914;DHT22;13718;50.922;5.346;2023-06-14T05:16:16;20.00;72.20
25914;DHT22;13718;50.922;5.346;2023-06-14T05:18:44;20.20;72.50
25914;DHT22;13718;50.922;5.346;2023-06-14T05:21:11;20.40;71.90
25914;DHT22;13718;50.922;5.346;2023-06-14T05:23:36;20.60;70.80
25914;DHT22;13718;50.922;5.346;2023-06-14T05:26:02;20.60;71.10
25914;DHT22;13718;50.922;5.346;2023-06-14T05:28:29;20.60;71.10
25914;DHT22;13718;50.922;5.346;2023-06-14T05:30:56;21.00;71.10
25914;DHT22;13718;50.922;5.346;2023-06-14T05:33:21;22.20;68.50
25914;DHT22;13718;50.922;5.346;2023-06-14T05:35:47;23.90;64.80
25914;DHT22;13718;50.922;5.346;2023-06-14T05:38:13;25.40;61.00
25914;DHT22;13718;50.922;5.346;2023-06-14T05:40:38;26.40;58.10
25914;DHT22;13718;50.922;5.346;2023-06-14T05:43:04;27.50;56.80
25914;DHT22;13718;50.922;5.346;2023-06-14T05:45:29;28.30;54.40
25914;DHT22;13718;50.922;5.346;2023-06-14T05:47:55;28.80;53.70
25914;DHT22;13718;50.922;5.346;2023-06-14T05:50:21;29.60;52.40
25914;DHT22;13718;50.922;5.346;2023-06-14T05:52:47;30.40;51.60
25914;DHT22;13718;50.922;5.346;2023-06-14T05:55:12;31.10;50.40
25914;DHT22;13718;50.922;5.346;2023-06-14T05:57:38;31.50;49.10
25914;DHT22;13718;50.922;5.346;2023-06-14T06:00:05;31.90;48.40
25914;DHT22;13718;50.922;5.346;2023-06-14T06:02:37;32.40;47.80
25914;DHT22;13718;50.922;5.346;2023-06-14T06:05:03;32.90;47.00
25914;DHT22;13718;50.922;5.346;2023-06-14T06:07:28;33.50;46.30
25914;DHT22;13718;50.922;5.346;2023-06-14T06:09:54;34.00;45.80
25914;DHT22;13718;50.922;5.346;2023-06-14T06:12:19;34.40;44.60
25914;DHT22;13718;50.922;5.346;2023-06-14T06:14:45;35.00;44.50
25914;DHT22;13718;50.922;5.346;2023-06-14T06:17:11;35.50;43.90
25914;DHT22;13718;50.922;5.346;2023-06-14T06:19:36;35.90;43.40
25914;DHT22;13718;50.922;5.346;2023-06-14T06:22:02;36.30;43.00
25914;DHT22;13718;50.922;5.346;2023-06-14T06:24:30;36.50;42.70
25914;DHT22;13718;50.922;5.346;2023-06-14T06:26:55;37.00;42.30
25914;DHT22;13718;50.922;5.346;2023-06-14T06:29:21;37.30;41.30
25914;DHT22;13718;50.922;5.346;2023-06-14T06:31:46;37.50;41.40
25914;DHT22;13718;50.922;5.346;2023-06-14T06:34:12;37.80;41.30
25914;DHT22;13718;50.922;5.346;2023-06-14T06:36:38;38.10;41.30
25914;DHT22;13718;50.922;5.346;2023-06-14T06:39:03;37.70;40.10
25914;DHT22;13718;50.922;5.346;2023-06-14T06:41:38;37.70;40.80
25914;DHT22;13718;50.922;5.346;2023-06-14T06:44:06;37.80;40.40
25914;DHT22;13718;50.922;5.346;2023-06-14T06:46:32;37.80;40.30
25914;DHT22;13718;50.922;5.346;2023-06-14T06:48:58;38.00;40.40
25914;DHT22;13718;50.922;5.346;2023-06-14T06:51:23;38.00;39.70
25914;DHT22;13718;50.922;5.346;2023-06-14T06:53:55;37.80;40.10
25914;DHT22;13718;50.922;5.346;2023-06-14T06:56:21;37.00;39.60
25914;DHT22;13718;50.922;5.346;2023-06-14T06:58:51;36.50;40.90
25914;DHT22;13718;50.922;5.346;2023-06-14T07:01:17;36.10;41.30
25914;DHT22;13718;50.922;5.346;2023-06-14T07:03:45;35.60;41.70
25914;DHT22;13718;50.922;5.346;2023-06-14T07:06:11;35.80;42.00
25914;DHT22;13718;50.922;5.346;2023-06-14T07:08:36;36.30;42.20
25914;DHT22;13718;50.922;5.346;2023-06-14T07:11:04;36.30;41.10
25914;DHT22;13718;50.922;5.346;2023-06-14T07:13:30;36.50;41.70
25914;DHT22;13718;50.922;5.346;2023-06-14T07:15:58;36.10;40.40
25914;DHT22;13718;50.922;5.346;2023-06-14T07:18:24;36.30;40.90
25914;DHT22;13718;50.922;5.346;2023-06-14T07:20:50;36.20;40.30
25914;DHT22;13718;50.922;5.346;2023-06-14T07:23:16;35.80;39.80
25914;DHT22;13718;50.922;5.346;2023-06-14T07:25:41;35.90;40.60
25914;DHT22;13718;50.922;5.346;2023-06-14T07:28:07;36.00;40.30
25914;DHT22;13718;50.922;5.346;2023-06-14T07:30:32;35.90;40.80
25914;DHT22;13718;50.922;5.346;2023-06-14T07:32:58;36.10;40.10
25914;DHT22;13718;50.922;5.346;2023-06-14T07:35:24;36.40;40.00
25914;DHT22;13718;50.922;5.346;2023-06-14T07:37:49;36.70;39.70
25914;DHT22;13718;50.922;5.346;2023-06-14T07:40:15;37.20;39.60
25914;DHT22;13718;50.922;5.346;2023-06-14T07:42:41;37.50;39.50
25914;DHT22;13718;50.922;5.346;2023-06-14T07:45:07;37.70;38.60
25914;DHT22;13718;50.922;5.346;2023-06-14T07:47:33;37.80;38.20
25914;DHT22;13718;50.922;5.346;2023-06-14T07:49:59;37.60;37.80
25914;DHT22;13718;50.922;5.346;2023-06-14T07:52:24;37.20;38.30
25914;DHT22;13718;50.922;5.346;2023-06-14T07:54:50;37.50;38.20
25914;DHT22;13718;50.922;5.346;2023-06-14T07:57:16;37.00;38.50
25914;DHT22;13718;50.922;5.346;2023-06-14T07:59:42;36.20;38.60
25914;DHT22;13718;50.922;5.346;2023-06-14T08:02:07;35.00;40.00
25914;DHT22;13718;50.922;5.346;2023-06-14T08:04:33;34.80;40.40
25914;DHT22;13718;50.922;5.346;2023-06-14T08:06:59;34.00;42.00
25914;DHT22;13718;50.922;5.346;2023-06-14T08:09:26;33.80;42.50
25914;DHT22;13718;50.922;5.346;2023-06-14T08:11:53;34.40;42.10
25914;DHT22;13718;50.922;5.346;2023-06-14T08:14:18;35.20;41.50
25914;DHT22;13718;50.922;5.346;2023-06-14T08:16:44;35.90;40.10
25914;DHT22;13718;50.922;5.346;2023-06-14T08:19:10;36.70;40.00
25914;DHT22;13718;50.922;5.346;2023-06-14T08:21:35;36.80;39.30
25914;DHT22;13718;50.922;5.346;2023-06-14T08:24:01;36.70;38.60
25914;DHT22;13718;50.922;5.346;2023-06-14T08:26:27;36.20;39.70
25914;DHT22;13718;50.922;5.346;2023-06-14T08:28:57;36.50;39.50
25914;DHT22;13718;50.922;5.346;2023-06-14T08:31:23;37.10;39.70
25914;DHT22;13718;50.922;5.346;2023-06-14T08:33:50;37.40;38.40
25914;DHT22;13718;50.922;5.346;2023-06-14T08:36:15;37.50;37.90
25914;DHT22;13718;50.922;5.346;2023-06-14T08:38:41;38.10;38.60
25914;DHT22;13718;50.922;5.346;2023-06-14T08:41:08;38.10;37.20
25914;DHT22;13718;50.922;5.346;2023-06-14T08:43:36;37.80;36.90
25914;DHT22;13718;50.922;5.346;2023-06-14T08:46:03;37.30;38.00
25914;DHT22;13718;50.922;5.346;2023-06-14T08:48:30;35.70;38.90
25914;DHT22;13718;50.922;5.346;2023-06-14T08:51:02;35.20;40.00
25914;DHT22;13718;50.922;5.346;2023-06-14T08:53:31;34.90;39.40
25914;DHT22;13718;50.922;5.346;2023-06-14T08:56:00;35.60;39.50
25914;DHT22;13718;50.922;5.346;2023-06-14T08:58:36;34.90;39.30
25914;DHT22;13718;50.922;5.346;2023-06-14T09:01:03;34.80;41.20
25914;DHT22;13718;50.922;5.346;2023-06-14T09:03:30;34.90;39.70
25914;DHT22;13718;50.922;5.346;2023-06-14T09:05:59;35.30;38.70
25914;DHT22;13718;50.922;5.346;2023-06-14T09:08:26;35.20;39.20
25914;DHT22;13718;50.922;5.346;2023-06-14T09:10:56;35.00;38.80
25914;DHT22;13718;50.922;5.346;2023-06-14T09:13:21;35.70;40.10
25914;DHT22;13718;50.922;5.346;2023-06-14T09:15:47;35.80;38.80
25914;DHT22;13718;50.922;5.346;2023-06-14T09:18:13;36.00;39.00
25914;DHT22;13718;50.922;5.346;2023-06-14T09:20:38;35.80;38.00
25914;DHT22;13718;50.922;5.346;2023-06-14T09:23:05;35.40;38.00
25914;DHT22;13718;50.922;5.346;2023-06-14T09:25:31;35.10;38.00
25914;DHT22;13718;50.922;5.346;2023-06-14T09:27:56;35.20;38.30
25914;DHT22;13718;50.922;5.346;2023-06-14T09:30:22;35.90;38.50
25914;DHT22;13718;50.922;5.346;2023-06-14T09:32:47;36.30;37.20
25914;DHT22;13718;50.922;5.346;2023-06-14T09:35:17;36.00;36.60
25914;DHT22;13718;50.922;5.346;2023-06-14T09:37:43;34.80;38.30
25914;DHT22;13718;50.922;5.346;2023-06-14T09:40:10;34.40;39.30
25914;DHT22;13718;50.922;5.346;2023-06-14T09:42:37;33.20;39.40
25914;DHT22;13718;50.922;5.346;2023-06-14T09:45:03;33.10;40.10
25914;DHT22;13718;50.922;5.346;2023-06-14T09:47:29;33.00;40.70
25914;DHT22;13718;50.922;5.346;2023-06-14T09:49:55;31.90;40.80
25914;DHT22;13718;50.922;5.346;2023-06-14T09:52:21;30.90;42.30
25914;DHT22;13718;50.922;5.346;2023-06-14T09:54:48;30.00;43.90
25914;DHT22;13718;50.922;5.346;2023-06-14T09:57:17;29.20;45.00
25914;DHT22;13718;50.922;5.346;2023-06-14T09:59:46;28.70;45.90
25914;DHT22;13718;50.922;5.346;2023-06-14T10:02:35;28.30;46.20
25914;DHT22;13718;50.922;5.346;2023-06-14T10:05:03;27.90;46.10
25914;DHT22;13718;50.922;5.346;2023-06-14T10:07:35;27.60;46.80
25914;DHT22;13718;50.922;5.346;2023-06-14T10:10:01;27.10;47.50
25914;DHT22;13718;50.922;5.346;2023-06-14T10:12:27;27.00;47.80
25914;DHT22;13718;50.922;5.346;2023-06-14T10:14:53;26.90;48.50
25914;DHT22;13718;50.922;5.346;2023-06-14T10:20:06;27.00;49.40
25914;DHT22;13718;50.922;5.346;2023-06-14T10:22:43;27.20;49.20
25914;DHT22;13718;50.922;5.346;2023-06-14T10:25:26;27.30;47.60
25914;DHT22;13718;50.922;5.346;2023-06-14T10:28:03;27.20;48.20
25914;DHT22;13718;50.922;5.346;2023-06-14T10:30:28;27.20;47.80
25914;DHT22;13718;50.922;5.346;2023-06-14T10:33:05;27.30;47.80
25914;DHT22;13718;50.922;5.346;2023-06-14T10:35:31;27.40;47.10
25914;DHT22;13718;50.922;5.346;2023-06-14T10:38:10;27.40;47.00
25914;DHT22;13718;50.922;5.346;2023-06-14T10:40:36;27.30;47.40
25914;DHT22;13718;50.922;5.346;2023-06-14T10:43:23;27.30;46.60
25914;DHT22;13718;50.922;5.346;2023-06-14T10:46:28;27.30;47.60
25914;DHT22;13718;50.922;5.346;2023-06-14T10:48:57;27.00;48.00
25914;DHT22;13718;50.922;5.346;2023-06-14T10:51:23;26.70;48.80
25914;DHT22;13718;50.922;5.346;2023-06-14T10:53:50;26.60;48.90
25914;DHT22;13718;50.922;5.346;2023-06-14T10:56:29;26.70;49.00
25914;DHT22;13718;50.922;5.346;2023-06-14T10:58:56;26.80;49.20
25914;DHT22;13718;50.922;5.346;2023-06-14T11:01:36;26.80;49.30
25914;DHT22;13718;50.922;5.346;2023-06-14T11:04:09;27.00;48.30
25914;DHT22;13718;50.922;5.346;2023-06-14T11:06:49;27.10;48.30
25914;DHT22;13718;50.922;5.346;2023-06-14T11:11:48;26.90;48.00
25914;DHT22;13718;50.922;5.346;2023-06-14T11:14:14;26.70;48.70
25914;DHT22;13718;50.922;5.346;2023-06-14T11:16:40;26.70;49.10
25914;DHT22;13718;50.922;5.346;2023-06-14T11:19:05;26.80;49.00
25914;DHT22;13718;50.922;5.346;2023-06-14T11:21:34;27.00;48.90
25914;DHT22;13718;50.922;5.346;2023-06-14T11:23:59;27.20;46.20
25914;DHT22;13718;50.922;5.346;2023-06-14T11:26:30;27.30;46.00
25914;DHT22;13718;50.922;5.346;2023-06-14T11:28:59;27.30;46.00
25914;DHT22;13718;50.922;5.346;2023-06-14T11:31:26;27.40;45.50
25914;DHT22;13718;50.922;5.346;2023-06-14T11:33:56;27.50;45.00
25914;DHT22;13718;50.922;5.346;2023-06-14T11:36:24;27.50;44.60
25914;DHT22;13718;50.922;5.346;2023-06-14T11:39:01;27.40;45.00
25914;DHT22;13718;50.922;5.346;2023-06-14T11:41:38;27.30;44.60
25914;DHT22;13718;50.922;5.346;2023-06-14T11:44:05;27.40;43.60
25914;DHT22;13718;50.922;5.346;2023-06-14T11:46:31;27.40;43.10
25914;DHT22;13718;50.922;5.346;2023-06-14T11:48:57;27.30;43.60
25914;DHT22;13718;50.922;5.346;2023-06-14T11:51:23;27.10;43.90
25914;DHT22;13718;50.922;5.346;2023-06-14T11:53:49;26.90;44.00
25914;DHT22;13718;50.922;5.346;2023-06-14T11:56:15;26.80;43.60
25914;DHT22;13718;50.922;5.346;2023-06-14T11:58:43;26.60;44.20
25914;DHT22;13718;50.922;5.346;2023-06-14T12:01:08;26.90;43.70
25914;DHT22;13718;50.922;5.346;2023-06-14T12:03:34;26.90;43.60
25914;DHT22;13718;50.922;5.346;2023-06-14T12:06:05;27.30;43.20
25914;DHT22;13718;50.922;5.346;2023-06-14T12:08:36;27.50;42.80
25914;DHT22;13718;50.922;5.346;2023-06-14T12:11:14;27.50;42.40
25914;DHT22;13718;50.922;5.346;2023-06-14T12:13:41;27.40;42.40
25914;DHT22;13718;50.922;5.346;2023-06-14T12:16:08;27.30;43.10
25914;DHT22;13718;50.922;5.346;2023-06-14T12:18:38;27.40;42.90
25914;DHT22;13718;50.922;5.346;2023-06-14T12:21:05;27.50;42.80
25914;DHT22;13718;50.922;5.346;2023-06-14T12:26:13;27.50;43.30
25914;DHT22;13718;50.922;5.346;2023-06-14T12:28:40;27.40;42.90
25914;DHT22;13718;50.922;5.346;2023-06-14T12:31:07;27.50;43.60
25914;DHT22;13718;50.922;5.346;2023-06-14T12:33:32;27.40;43.70
25914;DHT22;13718;50.922;5.346;2023-06-14T12:35:58;27.20;44.60
25914;DHT22;13718;50.922;5.346;2023-06-14T12:38:24;27.20;44.90
25914;DHT22;13718;50.922;5.346;2023-06-14T12:40:50;27.10;45.30
25914;DHT22;13718;50.922;5.346;2023-06-14T12:43:15;27.40;45.70
25914;DHT22;13718;50.922;5.346;2023-06-14T12:45:41;27.20;45.40
25914;DHT22;13718;50.922;5.346;2023-06-14T12:48:06;27.40;45.20
25914;DHT22;13718;50.922;5.346;2023-06-14T12:50:34;27.60;44.20
25914;DHT22;13718;50.922;5.346;2023-06-14T12:53:00;27.70;44.50
25914;DHT22;13718;50.922;5.346;2023-06-14T12:55:25;27.50;45.00
25914;DHT22;13718;50.922;5.346;2023-06-14T12:57:51;27.40;45.50
25914;DHT22;13718;50.922;5.346;2023-06-14T13:00:17;27.40;45.90
25914;DHT22;13718;50.922;5.346;2023-06-14T13:02:44;27.40;46.40
25914;DHT22;13718;50.922;5.346;2023-06-14T13:05:09;27.20;45.80
25914;DHT22;13718;50.922;5.346;2023-06-14T13:07:35;27.10;47.00
25914;DHT22;13718;50.922;5.346;2023-06-14T13:10:01;26.90;46.70
25914;DHT22;13718;50.922;5.346;2023-06-14T13:12:26;26.70;46.90
25914;DHT22;13718;50.922;5.346;2023-06-14T13:14:52;26.90;46.60
25914;DHT22;13718;50.922;5.346;2023-06-14T13:17:17;26.90;46.70
25914;DHT22;13718;50.922;5.346;2023-06-14T13:19:43;27.00;46.60
25914;DHT22;13718;50.922;5.346;2023-06-14T13:22:09;27.10;46.40
25914;DHT22;13718;50.922;5.346;2023-06-14T13:24:36;27.30;45.40
25914;DHT22;13718;50.922;5.346;2023-06-14T13:27:02;27.20;45.70
25914;DHT22;13718;50.922;5.346;2023-06-14T13:29:27;27.00;45.80
25914;DHT22;13718;50.922;5.346;2023-06-14T13:31:53;26.90;46.60
25914;DHT22;13718;50.922;5.346;2023-06-14T13:34:19;26.70;46.50
25914;DHT22;13718;50.922;5.346;2023-06-14T13:36:45;26.60;47.10
25914;DHT22;13718;50.922;5.346;2023-06-14T13:39:11;26.90;47.50
25914;DHT22;13718;50.922;5.346;2023-06-14T13:41:37;27.00;46.10
25914;DHT22;13718;50.922;5.346;2023-06-14T13:44:03;27.20;46.00
25914;DHT22;13718;50.922;5.346;2023-06-14T13:46:31;27.20;46.20
25914;DHT22;13718;50.922;5.346;2023-06-14T13:48:57;27.00;47.20
25914;DHT22;13718;50.922;5.346;2023-06-14T13:51:23;27.00;46.70
25914;DHT22;13718;50.922;5.346;2023-06-14T13:53:49;27.10;46.90
25914;DHT22;13718;50.922;5.346;2023-06-14T13:56:16;27.00;46.30
25914;DHT22;13718;50.922;5.346;2023-06-14T13:58:42;26.90;46.80
25914;DHT22;13718;50.922;5.346;2023-06-14T14:01:08;27.00;46.60
25914;DHT22;13718;50.922;5.346;2023-06-14T14:03:34;27.00;46.70
25914;DHT22;13718;50.922;5.346;2023-06-14T14:06:01;26.90;46.40
25914;DHT22;13718;50.922;5.346;2023-06-14T14:08:27;26.90;46.60
25914;DHT22;13718;50.922;5.346;2023-06-14T14:10:53;27.00;46.10
25914;DHT22;13718;50.922;5.346;2023-06-14T14:13:19;27.10;45.80
25914;DHT22;13718;50.922;5.346;2023-06-14T14:15:46;27.20;45.60
25914;DHT22;13718;50.922;5.346;2023-06-14T14:18:12;27.20;45.50
25914;DHT22;13718;50.922;5.346;2023-06-14T14:20:37;27.20;45.60
25914;DHT22;13718;50.922;5.346;2023-06-14T14:23:03;26.90;46.20
25914;DHT22;13718;50.922;5.346;2023-06-14T14:25:28;26.90;46.70
25914;DHT22;13718;50.922;5.346;2023-06-14T14:27:54;27.00;46.40
25914;DHT22;13718;50.922;5.346;2023-06-14T14:30:20;27.10;46.30
25914;DHT22;13718;50.922;5.346;2023-06-14T14:32:51;26.90;47.20
25914;DHT22;13718;50.922;5.346;2023-06-14T14:35:18;27.00;46.60
25914;DHT22;13718;50.922;5.346;2023-06-14T14:37:44;27.00;46.40
25914;DHT22;13718;50.922;5.346;2023-06-14T14:40:10;27.10;47.20
25914;DHT22;13718;50.922;5.346;2023-06-14T14:42:36;27.10;46.60
25914;DHT22;13718;50.922;5.346;2023-06-14T14:45:02;27.00;46.10
25914;DHT22;13718;50.922;5.346;2023-06-14T14:47:28;26.80;46.40
25914;DHT22;13718;50.922;5.346;2023-06-14T14:49:54;26.70;46.40
25914;DHT22;13718;50.922;5.346;2023-06-14T14:52:19;26.70;46.40
25914;DHT22;13718;50.922;5.346;2023-06-14T14:54:45;26.60;46.50
25914;DHT22;13718;50.922;5.346;2023-06-14T14:57:10;26.50;47.30
25914;DHT22;13718;50.922;5.346;2023-06-14T14:59:36;26.50;46.80
25914;DHT22;13718;50.922;5.346;2023-06-14T15:02:02;26.40;46.00
25914;DHT22;13718;50.922;5.346;2023-06-14T15:04:28;26.50;46.30
25914;DHT22;13718;50.922;5.346;2023-06-14T15:06:53;26.50;46.10
25914;DHT22;13718;50.922;5.346;2023-06-14T15:09:19;26.60;46.20
25914;DHT22;13718;50.922;5.346;2023-06-14T15:11:44;26.80;46.00
25914;DHT22;13718;50.922;5.346;2023-06-14T15:14:10;26.80;46.90
25914;DHT22;13718;50.922;5.346;2023-06-14T15:16:37;26.90;46.70
25914;DHT22;13718;50.922;5.346;2023-06-14T15:19:02;27.00;47.00
25914;DHT22;13718;50.922;5.346;2023-06-14T15:21:28;26.90;47.50
25914;DHT22;13718;50.922;5.346;2023-06-14T15:23:54;26.50;47.40
25914;DHT22;13718;50.922;5.346;2023-06-14T15:26:20;26.50;48.00
25914;DHT22;13718;50.922;5.346;2023-06-14T15:28:46;26.40;47.50
25914;DHT22;13718;50.922;5.346;2023-06-14T15:31:11;26.40;48.50
25914;DHT22;13718;50.922;5.346;2023-06-14T15:33:37;26.70;47.50
25914;DHT22;13718;50.922;5.346;2023-06-14T15:36:03;26.80;47.00
25914;DHT22;13718;50.922;5.346;2023-06-14T15:38:29;26.80;47.00
25914;DHT22;13718;50.922;5.346;2023-06-14T15:40:55;27.00;46.70